sensor_id;sensor_type;location;lat;lon;timestamp;pressure;altitude;pressure_sealevel;temperature;humidity
9129;BME280;4599;50.906;6.786;2024-03-08T00:00:50;100415.41;;;3.05;68.41
9129;BME280;4599;50.906;6.786;2024-03-08T00:04:52;100412.78;;;2.86;69.76
9129;BME280;4599;50.906;6.786;2024-03-08T00:08:53;100411.69;;;2.91;69.06
9129;BME280;4599;50.906;6.786;2024-03-08T00:12:55;100406.34;;;2.99;68.91
9129;BME280;4599;50.906;6.786;2024-03-08T00:16:58;100399.88;;;2.92;69.04
9129;BME280;4599;50.906;6.786;2024-03-08T00:21:00;100397.63;;;2.84;69.30
9129;BME280;4599;50.906;6.786;2024-03-08T00:25:02;100390.25;;;2.80;69.31
9129;BME280;4599;50.906;6.786;2024-03-08T00:29:04;100394.47;;;2.79;68.86
9129;BME280;4599;50.906;6.786;2024-03-08T00:33:07;100393.06;;;2.72;69.48
9129;BME280;4599;50.906;6.786;2024-03-08T00:37:09;100382.47;;;2.63;69.88
9129;BME280;4599;50.906;6.786;2024-03-08T00:41:10;100382.28;;;2.67;69.43
9129;BME280;4599;50.906;6.786;2024-03-08T00:45:12;100371.75;;;2.78;68.74
9129;BME280;4599;50.906;6.786;2024-03-08T00:49:15;100378.06;;;2.68;69.15
9129;BME280;4599;50.906;6.786;2024-03-08T00:53:17;100365.53;;;2.65;69.42
9129;BME280;4599;50.906;6.786;2024-03-08T00:57:19;100365.53;;;2.65;68.82
9129;BME280;4599;50.906;6.786;2024-03-08T01:01:21;100360.53;;;2.63;69.49
9129;BME280;4599;50.906;6.786;2024-03-08T01:05:24;100361.44;;;2.62;69.04
9129;BME280;4599;50.906;6.786;2024-03-08T01:09:26;100356.59;;;2.56;69.55
9129;BME280;4599;50.906;6.786;2024-03-08T01:13:27;100352.31;;;2.58;69.73
9129;BME280;4599;50.906;6.786;2024-03-08T01:17:29;100347.41;;;2.54;69.86
9129;BME280;4599;50.906;6.786;2024-03-08T01:21:32;100344.88;;;2.54;69.83
9129;BME280;4599;50.906;6.786;2024-03-08T01:25:34;100343.59;;;2.43;70.02
9129;BME280;4599;50.906;6.786;2024-03-08T01:29:35;100328.28;;;2.25;70.50
9129;BME280;4599;50.906;6.786;2024-03-08T01:33:37;100331.28;;;2.34;70.62
9129;BME280;4599;50.906;6.786;2024-03-08T01:37:41;100325.91;;;2.43;70.22
9129;BME280;4599;50.906;6.786;2024-03-08T01:41:42;100317.22;;;2.27;70.48
9129;BME280;4599;50.906;6.786;2024-03-08T01:45:44;100312.41;;;2.21;71.04
9129;BME280;4599;50.906;6.786;2024-03-08T01:49:46;100282.53;;;2.09;69.89
9129;BME280;4599;50.906;6.786;2024-03-08T01:53:49;100306.19;;;2.08;71.13
9129;BME280;4599;50.906;6.786;2024-03-08T01:57:51;100302.34;;;2.20;70.66
9129;BME280;4599;50.906;6.786;2024-03-08T02:01:55;100286.84;;;2.07;70.84
9129;BME280;4599;50.906;6.786;2024-03-08T02:05:57;100296.06;;;2.08;70.79
9129;BME280;4599;50.906;6.786;2024-03-08T02:10:00;100297.91;;;2.05;71.12
9129;BME280;4599;50.906;6.786;2024-03-08T02:14:02;100292.25;;;1.98;71.71
9129;BME280;4599;50.906;6.786;2024-03-08T02:18:04;100275.44;;;1.97;71.40
9129;BME280;4599;50.906;6.786;2024-03-08T02:22:08;100281.31;;;1.97;71.65
9129;BME280;4599;50.906;6.786;2024-03-08T02:26:10;100283.84;;;1.97;72.57
9129;BME280;4599;50.906;6.786;2024-03-08T02:30:12;100275.31;;;2.00;72.01
9129;BME280;4599;50.906;6.786;2024-03-08T02:34:14;100265.97;;;2.02;71.71
9129;BME280;4599;50.906;6.786;2024-03-08T02:38:18;100266.91;;;1.99;71.99
9129;BME280;4599;50.906;6.786;2024-03-08T02:42:20;100261.53;;;1.85;72.18
9129;BME280;4599;50.906;6.786;2024-03-08T02:46:22;100259.31;;;1.99;71.93
9129;BME280;4599;50.906;6.786;2024-03-08T02:50:23;100265.22;;;2.00;72.33
9129;BME280;4599;50.906;6.786;2024-03-08T02:54:26;100254.19;;;1.79;72.39
9129;BME280;4599;50.906;6.786;2024-03-08T02:58:28;100252.56;;;1.78;72.71
9129;BME280;4599;50.906;6.786;2024-03-08T03:02:30;100251.78;;;1.76;73.02
9129;BME280;4599;50.906;6.786;2024-03-08T03:06:32;100248.28;;;1.80;72.64
9129;BME280;4599;50.906;6.786;2024-03-08T03:10:35;100250.19;;;1.74;72.89
9129;BME280;4599;50.906;6.786;2024-03-08T03:14:36;100240.09;;;1.74;73.33
9129;BME280;4599;50.906;6.786;2024-03-08T03:18:38;100236.91;;;1.69;73.14
9129;BME280;4599;50.906;6.786;2024-03-08T03:22:40;100235.22;;;1.69;73.86
9129;BME280;4599;50.906;6.786;2024-03-08T03:26:43;100239.06;;;1.56;73.65
9129;BME280;4599;50.906;6.786;2024-03-08T03:30:46;100234.63;;;1.63;73.76
9129;BME280;4599;50.906;6.786;2024-03-08T03:34:47;100229.63;;;1.61;73.92
9129;BME280;4599;50.906;6.786;2024-03-08T03:38:49;100230.44;;;1.62;73.74
9129;BME280;4599;50.906;6.786;2024-03-08T03:42:52;100229.19;;;1.50;73.85
9129;BME280;4599;50.906;6.786;2024-03-08T03:46:54;100224.03;;;1.53;73.97
9129;BME280;4599;50.906;6.786;2024-03-08T03:50:56;100221.50;;;1.53;73.76
9129;BME280;4599;50.906;6.786;2024-03-08T03:54:57;100225.56;;;1.57;73.73
9129;BME280;4599;50.906;6.786;2024-03-08T03:59:00;100216.09;;;1.40;74.48
9129;BME280;4599;50.906;6.786;2024-03-08T04:03:02;100214.50;;;1.38;74.59
9129;BME280;4599;50.906;6.786;2024-03-08T04:07:05;100209.50;;;1.36;74.39
9129;BME280;4599;50.906;6.786;2024-03-08T04:11:07;100205.59;;;1.28;75.11
9129;BME280;4599;50.906;6.786;2024-03-08T04:15:11;100209.53;;;1.35;74.72
9129;BME280;4599;50.906;6.786;2024-03-08T04:19:13;100204.84;;;1.26;74.95
9129;BME280;4599;50.906;6.786;2024-03-08T04:23:15;100205.81;;;1.22;75.55
9129;BME280;4599;50.906;6.786;2024-03-08T04:27:16;100205.81;;;1.22;75.30
9129;BME280;4599;50.906;6.786;2024-03-08T04:31:20;100196.00;;;1.14;75.43
9129;BME280;4599;50.906;6.786;2024-03-08T04:35:21;100199.19;;;1.19;75.34
9129;BME280;4599;50.906;6.786;2024-03-08T04:39:23;100195.00;;;1.18;75.36
9129;BME280;4599;50.906;6.786;2024-03-08T04:43:25;100194.25;;;1.16;75.27
9129;BME280;4599;50.906;6.786;2024-03-08T04:47:29;100192.59;;;1.15;76.07
9129;BME280;4599;50.906;6.786;2024-03-08T04:51:30;100185.03;;;1.15;75.58
9129;BME280;4599;50.906;6.786;2024-03-08T04:55:32;100189.25;;;1.15;75.70
9129;BME280;4599;50.906;6.786;2024-03-08T04:59:34;100175.59;;;1.20;75.04
9129;BME280;4599;50.906;6.786;2024-03-08T05:03:37;100171.47;;;1.18;75.36
9129;BME280;4599;50.906;6.786;2024-03-08T05:07:39;100171.47;;;1.18;75.36
9129;BME280;4599;50.906;6.786;2024-03-08T05:11:40;100170.63;;;1.17;75.09
9129;BME280;4599;50.906;6.786;2024-03-08T05:15:42;100169.16;;;1.12;75.19
9129;BME280;4599;50.906;6.786;2024-03-08T05:19:45;100156.31;;;1.18;75.44
9129;BME280;4599;50.906;6.786;2024-03-08T05:23:47;100156.97;;;0.99;76.12
9129;BME280;4599;50.906;6.786;2024-03-08T05:27:49;100151.84;;;1.03;75.59
9129;BME280;4599;50.906;6.786;2024-03-08T05:31:51;100154.63;;;1.18;75.45
9129;BME280;4599;50.906;6.786;2024-03-08T05:35:55;100141.50;;;0.85;76.04
9129;BME280;4599;50.906;6.786;2024-03-08T05:39:58;100152.75;;;1.00;76.32
9129;BME280;4599;50.906;6.786;2024-03-08T05:44:00;100156.06;;;1.02;75.63
9129;BME280;4599;50.906;6.786;2024-03-08T05:48:02;100148.66;;;0.97;75.61
9129;BME280;4599;50.906;6.786;2024-03-08T05:52:05;100139.44;;;0.96;76.73
9129;BME280;4599;50.906;6.786;2024-03-08T05:56:07;100142.84;;;0.95;76.23
9129;BME280;4599;50.906;6.786;2024-03-08T06:00:10;100138.34;;;1.04;76.27
9129;BME280;4599;50.906;6.786;2024-03-08T06:04:11;100136.78;;;0.99;76.05
9129;BME280;4599;50.906;6.786;2024-03-08T06:08:15;100129.84;;;1.06;76.00
9129;BME280;4599;50.906;6.786;2024-03-08T06:12:17;100138.72;;;0.93;76.29
9129;BME280;4599;50.906;6.786;2024-03-08T06:16:20;100129.34;;;0.96;76.08
9129;BME280;4599;50.906;6.786;2024-03-08T06:20:39;100127.50;;;1.02;76.10
9129;BME280;4599;50.906;6.786;2024-03-08T06:24:49;100124.84;;;1.05;76.13
9129;BME280;4599;50.906;6.786;2024-03-08T06:28:54;100128.75;;;1.13;75.70
9129;BME280;4599;50.906;6.786;2024-03-08T06:32:56;100123.75;;;1.12;75.82
9129;BME280;4599;50.906;6.786;2024-03-08T06:36:58;100125.44;;;1.11;75.72
9129;BME280;4599;50.906;6.786;2024-03-08T06:41:02;100120.88;;;1.21;75.78
9129;BME280;4599;50.906;6.786;2024-03-08T06:45:04;100119.13;;;1.23;76.10
9129;BME280;4599;50.906;6.786;2024-03-08T06:49:06;100114.69;;;1.29;75.49
9129;BME280;4599;50.906;6.786;2024-03-08T06:53:07;100121.88;;;1.38;75.38
9129;BME280;4599;50.906;6.786;2024-03-08T06:57:11;100115.22;;;1.37;75.32
9129;BME280;4599;50.906;6.786;2024-03-08T07:01:13;100119.19;;;1.43;75.07
9129;BME280;4599;50.906;6.786;2024-03-08T07:05:16;100113.88;;;1.50;75.29
9129;BME280;4599;50.906;6.786;2024-03-08T07:09:19;100111.28;;;1.52;75.22
9129;BME280;4599;50.906;6.786;2024-03-08T07:13:23;100116.84;;;1.60;75.19
9129;BME280;4599;50.906;6.786;2024-03-08T07:17:25;100111.22;;;1.75;74.22
9129;BME280;4599;50.906;6.786;2024-03-08T07:21:27;100111.88;;;1.80;74.13
9129;BME280;4599;50.906;6.786;2024-03-08T07:25:29;100102.94;;;1.92;73.42
9129;BME280;4599;50.906;6.786;2024-03-08T07:29:32;100097.09;;;2.32;72.08
9129;BME280;4599;50.906;6.786;2024-03-08T07:33:33;100085.75;;;3.17;68.82
9129;BME280;4599;50.906;6.786;2024-03-08T07:37:36;100078.72;;;3.93;66.95
9129;BME280;4599;50.906;6.786;2024-03-08T07:41:38;100080.56;;;4.57;64.39
9129;BME280;4599;50.906;6.786;2024-03-08T07:45:41;100075.66;;;4.87;62.82
9129;BME280;4599;50.906;6.786;2024-03-08T07:49:42;100062.00;;;5.21;61.51
9129;BME280;4599;50.906;6.786;2024-03-08T07:53:44;100064.06;;;5.60;61.66
9129;BME280;4599;50.906;6.786;2024-03-08T07:57:46;100042.66;;;5.03;61.86
9129;BME280;4599;50.906;6.786;2024-03-08T08:01:49;100061.81;;;4.44;63.75
9129;BME280;4599;50.906;6.786;2024-03-08T08:05:51;100057.00;;;4.22;64.91
9129;BME280;4599;50.906;6.786;2024-03-08T08:09:53;100046.06;;;3.87;66.02
9129;BME280;4599;50.906;6.786;2024-03-08T08:13:54;100051.50;;;3.97;66.41
9129;BME280;4599;50.906;6.786;2024-03-08T08:17:58;100034.84;;;3.93;67.08
9129;BME280;4599;50.906;6.786;2024-03-08T08:22:00;100046.22;;;4.01;66.80
9129;BME280;4599;50.906;6.786;2024-03-08T08:26:02;100028.19;;;3.90;66.85
9129;BME280;4599;50.906;6.786;2024-03-08T08:30:05;100013.94;;;3.88;67.00
9129;BME280;4599;50.906;6.786;2024-03-08T08:34:10;100010.66;;;4.03;67.38
9129;BME280;4599;50.906;6.786;2024-03-08T08:38:12;99995.84;;;4.28;66.63
9129;BME280;4599;50.906;6.786;2024-03-08T08:42:14;99989.78;;;3.98;67.09
9129;BME280;4599;50.906;6.786;2024-03-08T08:46:17;100001.03;;;4.25;67.67
9129;BME280;4599;50.906;6.786;2024-03-08T08:50:23;100001.25;;;4.53;65.67
9129;BME280;4599;50.906;6.786;2024-03-08T08:54:26;99995.38;;;4.53;66.05
9129;BME280;4599;50.906;6.786;2024-03-08T08:58:27;99990.72;;;4.61;65.80
9129;BME280;4599;50.906;6.786;2024-03-08T09:02:29;99985.91;;;4.88;65.13
9129;BME280;4599;50.906;6.786;2024-03-08T09:06:33;99989.22;;;5.04;64.63
9129;BME280;4599;50.906;6.786;2024-03-08T09:10:34;99974.00;;;5.04;64.59
9129;BME280;4599;50.906;6.786;2024-03-08T09:14:36;99974.75;;;5.06;63.83
9129;BME280;4599;50.906;6.786;2024-03-08T09:18:38;99964.41;;;4.93;64.46
9129;BME280;4599;50.906;6.786;2024-03-08T09:22:43;99957.91;;;5.19;64.07
9129;BME280;4599;50.906;6.786;2024-03-08T09:26:45;99959.91;;;5.44;63.31
9129;BME280;4599;50.906;6.786;2024-03-08T09:30:47;99956.94;;;5.51;63.09
9129;BME280;4599;50.906;6.786;2024-03-08T09:35:00;99949.59;;;5.75;62.79
9129;BME280;4599;50.906;6.786;2024-03-08T09:39:03;99951.13;;;5.78;62.13
9129;BME280;4599;50.906;6.786;2024-03-08T09:43:05;99928.22;;;6.08;61.70
9129;BME280;4599;50.906;6.786;2024-03-08T09:47:07;99924.22;;;6.18;61.14
9129;BME280;4599;50.906;6.786;2024-03-08T09:51:10;99919.13;;;6.18;60.33
9129;BME280;4599;50.906;6.786;2024-03-08T09:55:13;99919.34;;;6.82;58.94
9129;BME280;4599;50.906;6.786;2024-03-08T09:59:17;99914.84;;;7.13;57.79
9129;BME280;4599;50.906;6.786;2024-03-08T10:03:19;99900.41;;;7.76;55.73
9129;BME280;4599;50.906;6.786;2024-03-08T10:07:21;99895.91;;;8.05;54.61
9129;BME280;4599;50.906;6.786;2024-03-08T10:11:24;99884.56;;;8.82;52.62
9129;BME280;4599;50.906;6.786;2024-03-08T10:15:27;99877.88;;;9.49;49.28
9129;BME280;4599;50.906;6.786;2024-03-08T10:19:28;99866.84;;;10.15;47.79
9129;BME280;4599;50.906;6.786;2024-03-08T10:23:30;99848.81;;;9.83;47.46
9129;BME280;4599;50.906;6.786;2024-03-08T10:27:34;99873.81;;;9.91;47.11
9129;BME280;4599;50.906;6.786;2024-03-08T10:31:35;99880.44;;;9.93;46.67
9129;BME280;4599;50.906;6.786;2024-03-08T10:35:37;99857.75;;;9.89;46.88
9129;BME280;4599;50.906;6.786;2024-03-08T10:39:41;99849.94;;;10.24;44.79
9129;BME280;4599;50.906;6.786;2024-03-08T10:44:10;99848.56;;;10.09;45.27
9129;BME280;4599;50.906;6.786;2024-03-08T10:48:23;99842.06;;;10.59;43.75
9129;BME280;4599;50.906;6.786;2024-03-08T10:52:27;99825.47;;;10.94;43.15
9129;BME280;4599;50.906;6.786;2024-03-08T10:56:30;99826.00;;;11.39;43.38
9129;BME280;4599;50.906;6.786;2024-03-08T11:00:33;99826.66;;;10.90;42.32
9129;BME280;4599;50.906;6.786;2024-03-08T11:04:36;99831.50;;;10.52;44.23
9129;BME280;4599;50.906;6.786;2024-03-08T11:08:38;99835.25;;;10.37;44.25
9129;BME280;4599;50.906;6.786;2024-03-08T11:12:40;99818.44;;;10.55;44.51
9129;BME280;4599;50.906;6.786;2024-03-08T11:16:43;99802.13;;;11.48;41.66
9129;BME280;4599;50.906;6.786;2024-03-08T11:20:48;99815.78;;;11.19;41.39
9129;BME280;4599;50.906;6.786;2024-03-08T11:24:50;99807.00;;;10.59;42.29
9129;BME280;4599;50.906;6.786;2024-03-08T11:28:52;99802.59;;;10.50;43.38
9129;BME280;4599;50.906;6.786;2024-03-08T11:33:00;99788.31;;;11.10;41.74
9129;BME280;4599;50.906;6.786;2024-03-08T11:37:04;99794.31;;;10.58;42.61
9129;BME280;4599;50.906;6.786;2024-03-08T11:41:06;99791.19;;;10.54;43.87
9129;BME280;4599;50.906;6.786;2024-03-08T11:45:08;99769.38;;;10.60;42.70
9129;BME280;4599;50.906;6.786;2024-03-08T11:49:12;99767.63;;;11.02;43.35
9129;BME280;4599;50.906;6.786;2024-03-08T11:53:14;99765.16;;;11.21;41.80
9129;BME280;4599;50.906;6.786;2024-03-08T11:57:17;99748.94;;;11.51;40.69
9129;BME280;4599;50.906;6.786;2024-03-08T12:01:19;99765.41;;;11.78;41.03
9129;BME280;4599;50.906;6.786;2024-03-08T12:05:22;99764.41;;;11.30;41.80
9129;BME280;4599;50.906;6.786;2024-03-08T12:09:24;99756.53;;;11.22;42.12
9129;BME280;4599;50.906;6.786;2024-03-08T12:13:26;99744.72;;;12.76;39.53
9129;BME280;4599;50.906;6.786;2024-03-08T12:17:28;99734.53;;;12.93;38.57
9129;BME280;4599;50.906;6.786;2024-03-08T12:21:31;99724.13;;;14.22;35.18
9129;BME280;4599;50.906;6.786;2024-03-08T12:25:34;99730.66;;;14.69;34.05
9129;BME280;4599;50.906;6.786;2024-03-08T12:29:38;99724.94;;;14.40;34.45
9129;BME280;4599;50.906;6.786;2024-03-08T12:33:48;99710.63;;;14.28;35.24
9129;BME280;4599;50.906;6.786;2024-03-08T12:37:53;99694.41;;;16.45;32.56
9129;BME280;4599;50.906;6.786;2024-03-08T12:41:55;99694.22;;;17.96;29.25
9129;BME280;4599;50.906;6.786;2024-03-08T12:45:57;99679.03;;;19.62;26.14
9129;BME280;4599;50.906;6.786;2024-03-08T12:49:59;99676.28;;;16.53;29.67
9129;BME280;4599;50.906;6.786;2024-03-08T12:54:02;99679.41;;;15.42;32.03
9129;BME280;4599;50.906;6.786;2024-03-08T12:58:08;99679.47;;;13.78;35.06
9129;BME280;4599;50.906;6.786;2024-03-08T13:02:10;99672.41;;;11.65;39.79
9129;BME280;4599;50.906;6.786;2024-03-08T13:06:12;99674.50;;;10.71;41.45
9129;BME280;4599;50.906;6.786;2024-03-08T13:10:16;99666.09;;;10.59;42.09
9129;BME280;4599;50.906;6.786;2024-03-08T13:14:18;99656.06;;;10.56;41.90
9129;BME280;4599;50.906;6.786;2024-03-08T13:18:20;99644.63;;;10.60;42.47
9129;BME280;4599;50.906;6.786;2024-03-08T13:22:22;99627.03;;;11.07;42.21
9129;BME280;4599;50.906;6.786;2024-03-08T13:26:26;99622.56;;;10.99;42.39
9129;BME280;4599;50.906;6.786;2024-03-08T13:30:27;99624.84;;;10.62;42.44
9129;BME280;4599;50.906;6.786;2024-03-08T13:34:29;99611.63;;;10.67;42.28
9129;BME280;4599;50.906;6.786;2024-03-08T13:38:31;99588.44;;;11.08;41.97
9129;BME280;4599;50.906;6.786;2024-03-08T13:42:35;99590.84;;;11.78;40.48
9129;BME280;4599;50.906;6.786;2024-03-08T13:46:36;99596.81;;;11.10;40.32
9129;BME280;4599;50.906;6.786;2024-03-08T13:50:39;99596.94;;;10.59;41.97
9129;BME280;4599;50.906;6.786;2024-03-08T13:54:41;99567.03;;;10.79;42.25
9129;BME280;4599;50.906;6.786;2024-03-08T13:58:44;99579.75;;;10.50;42.31
9129;BME280;4599;50.906;6.786;2024-03-08T14:02:46;99562.00;;;10.58;42.80
9129;BME280;4599;50.906;6.786;2024-03-08T14:06:49;99546.88;;;10.55;42.00
9129;BME280;4599;50.906;6.786;2024-03-08T14:10:51;99539.94;;;10.46;42.56
9129;BME280;4599;50.906;6.786;2024-03-08T14:14:55;99551.53;;;10.40;42.89
9129;BME280;4599;50.906;6.786;2024-03-08T14:18:57;99529.78;;;10.65;42.19
9129;BME280;4599;50.906;6.786;2024-03-08T14:22:59;99517.25;;;10.72;41.56
9129;BME280;4599;50.906;6.786;2024-03-08T14:27:01;99536.88;;;10.52;42.62
9129;BME280;4599;50.906;6.786;2024-03-08T14:31:04;99524.66;;;10.65;42.96
9129;BME280;4599;50.906;6.786;2024-03-08T14:35:08;99509.91;;;10.48;42.65
9129;BME280;4599;50.906;6.786;2024-03-08T14:39:09;99534.41;;;10.41;43.16
9129;BME280;4599;50.906;6.786;2024-03-08T14:43:11;99509.66;;;10.51;42.69
9129;BME280;4599;50.906;6.786;2024-03-08T14:47:14;99499.97;;;10.64;42.00
9129;BME280;4599;50.906;6.786;2024-03-08T14:51:16;99505.34;;;10.61;42.68
9129;BME280;4599;50.906;6.786;2024-03-08T14:55:21;99485.22;;;10.47;42.41
9129;BME280;4599;50.906;6.786;2024-03-08T14:59:23;99479.66;;;10.42;42.72
9129;BME280;4599;50.906;6.786;2024-03-08T15:03:26;99475.50;;;10.41;42.68
9129;BME280;4599;50.906;6.786;2024-03-08T15:07:27;99468.13;;;10.67;43.43
9129;BME280;4599;50.906;6.786;2024-03-08T15:11:29;99464.41;;;10.80;42.54
9129;BME280;4599;50.906;6.786;2024-03-08T15:15:31;99447.69;;;10.76;42.67
9129;BME280;4599;50.906;6.786;2024-03-08T15:19:34;99443.50;;;10.26;42.65
9129;BME280;4599;50.906;6.786;2024-03-08T15:23:36;99450.91;;;10.29;42.97
9129;BME280;4599;50.906;6.786;2024-03-08T15:27:38;99453.00;;;10.44;41.99
9129;BME280;4599;50.906;6.786;2024-03-08T15:31:40;99453.47;;;10.29;43.15
9129;BME280;4599;50.906;6.786;2024-03-08T15:35:43;99423.53;;;10.20;43.28
9129;BME280;4599;50.906;6.786;2024-03-08T15:39:45;99436.81;;;10.34;43.07
9129;BME280;4599;50.906;6.786;2024-03-08T15:43:47;99444.16;;;10.18;43.43
9129;BME280;4599;50.906;6.786;2024-03-08T15:47:49;99442.25;;;10.20;43.94
9129;BME280;4599;50.906;6.786;2024-03-08T15:51:52;99426.22;;;10.18;43.60
9129;BME280;4599;50.906;6.786;2024-03-08T15:55:53;99439.63;;;10.11;43.50
9129;BME280;4599;50.906;6.786;2024-03-08T15:59:55;99434.41;;;10.12;44.77
9129;BME280;4599;50.906;6.786;2024-03-08T16:03:57;99431.00;;;10.02;44.05
9129;BME280;4599;50.906;6.786;2024-03-08T16:08:02;99426.78;;;9.91;44.94
9129;BME280;4599;50.906;6.786;2024-03-08T16:12:04;99423.34;;;9.81;45.38
9129;BME280;4599;50.906;6.786;2024-03-08T16:16:06;99419.72;;;9.84;45.85
9129;BME280;4599;50.906;6.786;2024-03-08T16:20:08;99428.84;;;9.77;45.77
9129;BME280;4599;50.906;6.786;2024-03-08T16:24:12;99413.34;;;9.78;45.82
9129;BME280;4599;50.906;6.786;2024-03-08T16:28:14;99410.31;;;9.84;46.36
9129;BME280;4599;50.906;6.786;2024-03-08T16:32:15;99404.41;;;9.63;46.60
9129;BME280;4599;50.906;6.786;2024-03-08T16:36:17;99385.00;;;9.61;46.27
9129;BME280;4599;50.906;6.786;2024-03-08T16:40:21;99403.41;;;9.55;46.27
9129;BME280;4599;50.906;6.786;2024-03-08T16:44:22;99398.09;;;9.46;46.79
9129;BME280;4599;50.906;6.786;2024-03-08T16:48:24;99400.25;;;9.41;47.60
9129;BME280;4599;50.906;6.786;2024-03-08T16:52:26;99399.81;;;9.36;47.49
9129;BME280;4599;50.906;6.786;2024-03-08T16:56:30;99395.06;;;9.32;47.56
9129;BME280;4599;50.906;6.786;2024-03-08T17:00:31;99405.53;;;9.29;47.89
9129;BME280;4599;50.906;6.786;2024-03-08T17:04:33;99397.31;;;9.25;48.27
9129;BME280;4599;50.906;6.786;2024-03-08T17:08:35;99392.81;;;9.18;48.64
9129;BME280;4599;50.906;6.786;2024-03-08T17:12:38;99405.28;;;9.11;49.01
9129;BME280;4599;50.906;6.786;2024-03-08T17:16:40;99406.09;;;9.12;48.83
9129;BME280;4599;50.906;6.786;2024-03-08T17:20:42;99401.84;;;9.01;49.26
9129;BME280;4599;50.906;6.786;2024-03-08T17:24:45;99398.03;;;8.95;49.35
9129;BME280;4599;50.906;6.786;2024-03-08T17:28:48;99403.25;;;8.94;49.87
9129;BME280;4599;50.906;6.786;2024-03-08T17:32:51;99397.84;;;8.87;49.91
9129;BME280;4599;50.906;6.786;2024-03-08T17:36:54;99413.66;;;8.81;50.64
9129;BME280;4599;50.906;6.786;2024-03-08T17:40:57;99385.66;;;8.80;50.31
9129;BME280;4599;50.906;6.786;2024-03-08T17:45:00;99402.31;;;8.74;50.62
9129;BME280;4599;50.906;6.786;2024-03-08T17:49:02;99395.09;;;8.68;51.11
9129;BME280;4599;50.906;6.786;2024-03-08T17:53:04;99403.25;;;8.62;51.92
9129;BME280;4599;50.906;6.786;2024-03-08T17:57:06;99388.53;;;8.55;51.32
9129;BME280;4599;50.906;6.786;2024-03-08T18:01:09;99402.00;;;8.57;51.44
9129;BME280;4599;50.906;6.786;2024-03-08T18:05:11;99411.66;;;8.53;51.85
9129;BME280;4599;50.906;6.786;2024-03-08T18:09:13;99398.56;;;8.46;52.17
9129;BME280;4599;50.906;6.786;2024-03-08T18:13:14;99392.16;;;8.41;52.43
9129;BME280;4599;50.906;6.786;2024-03-08T18:17:18;99385.44;;;8.40;52.94
9129;BME280;4599;50.906;6.786;2024-03-08T18:21:19;99384.75;;;8.38;52.57
9129;BME280;4599;50.906;6.786;2024-03-08T18:25:21;99383.50;;;8.32;53.28
9129;BME280;4599;50.906;6.786;2024-03-08T18:29:24;99378.50;;;8.31;52.97
9129;BME280;4599;50.906;6.786;2024-03-08T18:33:27;99377.09;;;8.27;53.63
9129;BME280;4599;50.906;6.786;2024-03-08T18:37:30;99382.19;;;8.27;53.76
9129;BME280;4599;50.906;6.786;2024-03-08T18:41:32;99374.53;;;8.16;53.95
9129;BME280;4599;50.906;6.786;2024-03-08T18:45:34;99374.44;;;8.06;54.23
9129;BME280;4599;50.906;6.786;2024-03-08T18:49:38;99378.63;;;7.96;54.63
9129;BME280;4599;50.906;6.786;2024-03-08T18:53:40;99369.94;;;7.98;54.72
9129;BME280;4599;50.906;6.786;2024-03-08T18:57:43;99367.03;;;7.92;54.78
9129;BME280;4599;50.906;6.786;2024-03-08T19:01:46;99362.63;;;7.94;54.96
9129;BME280;4599;50.906;6.786;2024-03-08T19:05:49;99356.50;;;7.85;55.60
9129;BME280;4599;50.906;6.786;2024-03-08T19:09:51;99350.69;;;7.83;55.04
9129;BME280;4599;50.906;6.786;2024-03-08T19:13:53;99342.34;;;7.81;55.48
9129;BME280;4599;50.906;6.786;2024-03-08T19:17:55;99348.72;;;7.65;56.04
9129;BME280;4599;50.906;6.786;2024-03-08T19:21:59;99347.34;;;7.72;55.93
9129;BME280;4599;50.906;6.786;2024-03-08T19:26:01;99337.72;;;7.53;57.03
9129;BME280;4599;50.906;6.786;2024-03-08T19:30:03;99343.63;;;7.54;56.82
9129;BME280;4599;50.906;6.786;2024-03-08T19:34:05;99331.31;;;7.47;56.88
9129;BME280;4599;50.906;6.786;2024-03-08T19:38:08;99321.81;;;7.38;56.95
9129;BME280;4599;50.906;6.786;2024-03-08T19:42:10;99315.09;;;7.37;57.89
9129;BME280;4599;50.906;6.786;2024-03-08T19:46:12;99306.28;;;7.30;58.21
9129;BME280;4599;50.906;6.786;2024-03-08T19:50:16;99307.44;;;7.26;58.03
9129;BME280;4599;50.906;6.786;2024-03-08T19:54:19;99299.44;;;7.20;58.47
9129;BME280;4599;50.906;6.786;2024-03-08T19:58:22;99294.34;;;7.20;58.72
9129;BME280;4599;50.906;6.786;2024-03-08T20:02:24;99287.50;;;7.09;58.89
9129;BME280;4599;50.906;6.786;2024-03-08T20:06:26;99278.59;;;7.04;58.42
9129;BME280;4599;50.906;6.786;2024-03-08T20:10:30;99276.28;;;7.00;59.33
9129;BME280;4599;50.906;6.786;2024-03-08T20:14:32;99293.38;;;6.98;59.35
9129;BME280;4599;50.906;6.786;2024-03-08T20:18:33;99287.47;;;6.98;58.82
9129;BME280;4599;50.906;6.786;2024-03-08T20:22:35;99289.59;;;7.04;58.48
9129;BME280;4599;50.906;6.786;2024-03-08T20:26:39;99291.56;;;7.00;58.75
9129;BME280;4599;50.906;6.786;2024-03-08T20:30:40;99285.75;;;6.98;58.56
9129;BME280;4599;50.906;6.786;2024-03-08T20:34:42;99281.81;;;7.06;57.86
9129;BME280;4599;50.906;6.786;2024-03-08T20:38:44;99272.91;;;7.00;58.36
9129;BME280;4599;50.906;6.786;2024-03-08T20:42:47;99270.94;;;7.04;57.26
9129;BME280;4599;50.906;6.786;2024-03-08T20:46:49;99260.50;;;6.95;58.40
9129;BME280;4599;50.906;6.786;2024-03-08T20:50:50;99270.09;;;6.92;58.14
9129;BME280;4599;50.906;6.786;2024-03-08T20:54:53;99264.06;;;6.82;57.83
9129;BME280;4599;50.906;6.786;2024-03-08T20:58:56;99263.47;;;6.78;58.74
9129;BME280;4599;50.906;6.786;2024-03-08T21:02:57;99266.94;;;6.77;59.14
9129;BME280;4599;50.906;6.786;2024-03-08T21:06:59;99268.22;;;6.72;58.86
9129;BME280;4599;50.906;6.786;2024-03-08T21:11:01;99270.03;;;6.70;58.75
9129;BME280;4599;50.906;6.786;2024-03-08T21:15:05;99269.88;;;6.49;60.58
9129;BME280;4599;50.906;6.786;2024-03-08T21:19:07;99268.63;;;6.55;59.81
9129;BME280;4599;50.906;6.786;2024-03-08T21:23:09;99263.41;;;6.56;60.44
9129;BME280;4599;50.906;6.786;2024-03-08T21:27:10;99266.31;;;6.52;60.52
9129;BME280;4599;50.906;6.786;2024-03-08T21:31:13;99268.88;;;6.63;60.28
9129;BME280;4599;50.906;6.786;2024-03-08T21:35:15;99271.53;;;6.61;59.98
9129;BME280;4599;50.906;6.786;2024-03-08T21:39:17;99261.94;;;6.65;59.82
9129;BME280;4599;50.906;6.786;2024-03-08T21:43:19;99262.19;;;6.62;60.37
9129;BME280;4599;50.906;6.786;2024-03-08T21:47:22;99256.63;;;6.68;59.62
9129;BME280;4599;50.906;6.786;2024-03-08T21:51:23;99264.41;;;6.77;59.40
9129;BME280;4599;50.906;6.786;2024-03-08T21:55:25;99266.44;;;6.61;60.05
9129;BME280;4599;50.906;6.786;2024-03-08T21:59:27;99258.94;;;6.71;59.59
9129;BME280;4599;50.906;6.786;2024-03-08T22:03:30;99249.84;;;6.79;58.31